Time,TemperatureF,DewpointF,PressureIn,WindDirection,WindDirectionDegrees,WindSpeedMPH,WindSpeedGustMPH,Humidity,HourlyPrecipIn,Conditions,Clouds,dailyrainin,SolarRadiationWatts/m^2,SoftwareType,DateUTC
2013-09-03 00:01:00,62.3,53.2,29.86,NW,313,0.4,1.2,72,0.00,OVC,SCT,0.00,0.0,WeatherDisplay:10.37,2013-09-03 04:01:00,
2013-09-03 00:02:00,62.3,53.2,29.86,NW,313,0.3,1.2,72,0.00,OVC,SCT,0.00,0.0,WeatherDisplay:10.37,2013-09-03 04:02:00,
2013-09-03 00:06:00,62.3,53.5,29.86,WSW,244,1.8,3.5,73,0.00,OVC,SCT,0.00,0.0,WeatherDisplay:10.37,2013-09-03 04:06:00,
2013-09-03 00:11:00,62.2,53.4,29.86,NW,310,0.2,4.6,73,0.00,OVC,SCT,0.00,0.0,WeatherDisplay:10.37,2013-09-03 04:11:00,
2013-09-03 00:15:00,62.1,53.3,29.86,WNW,290,0.3,1.2,73,0.00,OVC,SCT,0.00,0.0,WeatherDisplay:10.37,2013-09-03 04:15:00,
2013-09-03 00:20:00,61.9,53.5,29.86,NW,308,0.3,2.3,74,0.00,OVC,SCT,0.00,0.0,WeatherDisplay:10.37,2013-09-03 04:20:00,
2013-09-03 00:25:00,61.8,53.4,29.87,WNW,302,0.3,2.3,74,0.00,OVC,SCT,0.00,0.0,WeatherDisplay:10.37,2013-09-03 04:25:00,
2013-09-03 00:30:00,61.4,53.8,29.87,NW,315,0.3,2.3,76,0.00,OVC,SCT,0.00,0.0,WeatherDisplay:10.37,2013-09-03 04:30:00,
2013-09-03 00:35:00,60.8,53.9,29.87,NW,308,1.5,5.0,78,0.00,OVC,SCT,0.00,0.0,WeatherDisplay:10.37,2013-09-03 04:35:00,
2013-09-03 00:40:00,60.3,54.1,29.87,NW,313,0.3,2.3,80,0.00,OVC,SCT,0.00,0.0,WeatherDisplay:10.37,2013-09-03 04:40:00,
2013-09-03 00:45:00,60.0,53.8,29.87,NNW,340,0.0,2.3,80,0.00,OVC,SCT,0.00,0.0,WeatherDisplay:10.37,2013-09-03 04:45:00,
2013-09-03 00:50:00,59.9,53.7,29.87,WNW,303,0.1,1.2,80,0.00,OVC,SCT,0.00,0.0,WeatherDisplay:10.37,2013-09-03 04:50:00,
2013-09-03 00:55:00,59.8,54.0,29.87,WNW,301,0.0,0.0,81,0.00,OVC,SCT,0.00,0.0,WeatherDisplay:10.37,2013-09-03 04:55:00,
2013-09-03 01:00:00,59.7,53.5,29.87,WNW,298,1.1,4.0,80,0.00,OVC,SCT,0.00,0.0,WeatherDisplay:10.37,2013-09-03 05:00:00,
2013-09-03 01:05:00,59.6,53.4,29.87,WNW,295,1.5,3.5,80,0.00,OVC,SCT,0.00,0.0,WeatherDisplay:10.37,2013-09-03 05:05:00,
2013-09-03 01:10:00,59.5,53.3,29.87,WNW,297,0.0,0.0,80,0.00,OVC,SCT,0.00,0.0,WeatherDisplay:10.37,2013-09-03 05:10:00,
2013-09-03 01:15:00,59.5,53.3,29.87,WNW,301,0.0,0.0,80,0.00,OVC,SCT,0.00,0.0,WeatherDisplay:10.37,2013-09-03 05:15:00,
2013-09-03 01:20:00,59.4,53.2,29.87,WNW,288,0.5,1.2,80,0.00,OVC,SCT,0.00,0.0,WeatherDisplay:10.37,2013-09-03 05:20:00,
2013-09-03 01:25:00,59.4,53.2,29.87,NW,306,2.0,4.6,80,0.00,OVC,SCT,0.00,0.0,WeatherDisplay:10.37,2013-09-03 05:25:00,
2013-09-03 01:30:00,59.4,53.2,29.87,NW,323,0.0,0.0,80,0.00,OVC,SCT,0.00,0.0,WeatherDisplay:10.37,2013-09-03 05:30:00,
2013-09-03 01:35:00,59.4,52.9,29.88,NW,319,0.4,2.3,79,0.00,OVC,SCT,0.00,0.0,WeatherDisplay:10.37,2013-09-03 05:35:00,
2013-09-03 01:41:00,59.4,52.9,29.88,NW,325,0.0,0.0,79,0.00,OVC,SCT,0.00,0.0,WeatherDisplay:10.37,2013-09-03 05:41:00,
2013-09-03 01:46:00,59.4,52.9,29.87,NW,308,0.1,1.2,79,0.00,OVC,SCT,0.00,0.0,WeatherDisplay:10.37,2013-09-03 05:46:00,
2013-09-03 01:51:00,59.4,52.9,29.88,NW,307,0.0,0.0,79,0.00,OVC,SCT,0.00,0.0,WeatherDisplay:10.37,2013-09-03 05:51:00,
2013-09-03 01:56:00,59.4,52.9,29.88,NW,320,0.0,1.2,79,0.00,OVC,SCT,0.00,0.0,WeatherDisplay:10.37,2013-09-03 05:56:00,
2013-09-03 02:01:00,59.4,52.9,29.88,NW,305,0.2,2.3,79,0.00,OVC,SCT,0.00,0.0,WeatherDisplay:10.37,2013-09-03 06:01:00,
2013-09-03 02:06:00,59.4,52.9,29.88,WNW,286,0.4,0.0,79,0.00,OVC,SCT,0.00,0.0,WeatherDisplay:10.37,2013-09-03 06:06:00,
2013-09-03 02:11:00,59.4,52.9,29.88,NW,315,0.2,2.3,79,0.00,OVC,SCT,0.00,0.0,WeatherDisplay:10.37,2013-09-03 06:11:00,
2013-09-03 02:16:00,59.4,52.5,29.88,North,355,0.0,1.2,78,0.00,OVC,SCT,0.00,0.0,WeatherDisplay:10.37,2013-09-03 06:16:00,
2013-09-03 02:21:00,59.5,52.6,29.88,NNW,328,0.2,1.2,78,0.00,OVC,SCT,0.00,0.0,WeatherDisplay:10.37,2013-09-03 06:21:00,
2013-09-03 02:26:00,59.4,52.5,29.88,NW,307,0.6,3.5,78,0.00,OVC,SCT,0.00,0.0,WeatherDisplay:10.37,2013-09-03 06:26:00,
2013-09-03 02:31:00,59.4,52.5,29.88,NW,306,0.7,2.3,78,0.00,OVC,SCT,0.00,0.0,WeatherDisplay:10.37,2013-09-03 06:31:00,
2013-09-03 02:36:00,59.4,52.5,29.88,NW,308,0.5,2.3,78,0.00,OVC,SCT,0.00,0.0,WeatherDisplay:10.37,2013-09-03 06:36:00,
2013-09-03 02:41:00,59.4,52.5,29.88,NW,306,0.2,1.0,78,0.00,OVC,SCT,0.00,0.0,WeatherDisplay:10.37,2013-09-03 06:41:00,
2013-09-03 02:46:00,59.4,52.5,29.88,NW,306,0.0,0.0,78,0.00,OVC,SCT,0.00,0.0,WeatherDisplay:10.37,2013-09-03 06:46:00,
2013-09-03 02:51:00,59.4,52.5,29.88,NW,306,0.0,0.0,78,0.00,OVC,SCT,0.00,0.0,WeatherDisplay:10.37,2013-09-03 06:51:00,
2013-09-03 02:56:00,59.3,52.4,29.88,WNW,297,0.5,3.0,78,0.00,OVC,SCT,0.00,0.0,WeatherDisplay:10.37,2013-09-03 06:56:00,
2013-09-03 03:01:00,59.3,52.4,29.88,NW,315,0.6,3.5,78,0.00,OVC,SCT,0.00,0.0,WeatherDisplay:10.37,2013-09-03 07:01:00,
2013-09-03 03:06:00,59.3,52.4,29.88,NW,304,0.3,1.2,78,0.00,OVC,SCT,0.00,0.0,WeatherDisplay:10.37,2013-09-03 07:06:00,
2013-09-03 03:11:00,59.2,52.3,29.88,NW,314,0.2,1.0,78,0.00,OVC,SCT,0.00,0.0,WeatherDisplay:10.37,2013-09-03 07:11:00,
2013-09-03 03:16:00,59.2,52.7,29.88,NW,313,0.0,1.2,79,0.00,OVC,SCT,0.00,0.0,WeatherDisplay:10.37,2013-09-03 07:16:00,
2013-09-03 03:21:00,59.1,52.6,29.88,NW,313,0.4,2.3,79,0.00,OVC,SCT,0.00,0.0,WeatherDisplay:10.37,2013-09-03 07:21:00,
2013-09-03 03:26:00,59.0,52.8,29.88,NW,313,0.0,1.2,80,0.00,OVC,SCT,0.00,0.0,WeatherDisplay:10.37,2013-09-03 07:26:00,
2013-09-03 03:31:00,58.9,52.7,29.88,WNW,290,0.0,1.2,80,0.00,OVC,SCT,0.00,0.0,WeatherDisplay:10.37,2013-09-03 07:31:00,
2013-09-03 03:36:00,58.8,52.6,29.88,WNW,290,0.0,0.0,80,0.00,OVC,SCT,0.00,0.0,WeatherDisplay:10.37,2013-09-03 07:36:00,
2013-09-03 03:41:00,58.7,52.5,29.88,WNW,290,0.0,0.0,80,0.00,OVC,SCT,0.00,0.0,WeatherDisplay:10.37,2013-09-03 07:41:00,
2013-09-03 03:46:00,58.7,52.5,29.88,WNW,290,0.0,0.0,80,0.00,OVC,SCT,0.00,0.0,WeatherDisplay:10.37,2013-09-03 07:46:00,
2013-09-03 03:51:00,58.7,52.5,29.88,WNW,290,0.0,1.2,80,0.00,OVC,SCT,0.00,0.0,WeatherDisplay:10.37,2013-09-03 07:51:00,
2013-09-03 03:56:00,58.6,52.1,29.88,WNW,290,0.1,2.3,79,0.00,OVC,SCT,0.00,0.0,WeatherDisplay:10.37,2013-09-03 07:56:00,
2013-09-03 04:01:00,58.6,52.4,29.88,WNW,290,0.0,0.0,80,0.00,OVC,SCT,0.00,0.0,WeatherDisplay:10.37,2013-09-03 08:01:00,
2013-09-03 04:06:00,58.6,52.1,29.88,WNW,290,0.0,0.0,79,0.00,OVC,SCT,0.00,0.0,WeatherDisplay:10.37,2013-09-03 08:06:00,
2013-09-03 04:11:00,58.6,52.1,29.88,WNW,290,0.0,0.0,79,0.00,OVC,SCT,0.00,0.0,WeatherDisplay:10.37,2013-09-03 08:11:00,
2013-09-03 04:16:00,58.6,51.8,29.88,WNW,290,0.3,2.3,78,0.00,OVC,SCT,0.00,0.0,WeatherDisplay:10.37,2013-09-03 08:16:00,
2013-09-03 04:21:00,58.7,52.2,29.88,WNW,290,0.0,1.2,79,0.00,OVC,SCT,0.00,0.0,WeatherDisplay:10.37,2013-09-03 08:21:00,
2013-09-03 04:26:00,58.7,52.2,29.88,WNW,290,0.0,1.2,79,0.00,OVC,SCT,0.00,0.0,WeatherDisplay:10.37,2013-09-03 08:26:00,
2013-09-03 04:31:00,58.7,52.2,29.88,WNW,290,0.0,0.0,79,0.00,OVC,SCT,0.00,0.0,WeatherDisplay:10.37,2013-09-03 08:31:00,
2013-09-03 04:36:00,58.7,51.9,29.88,WNW,290,0.0,1.2,78,0.00,OVC,SCT,0.00,0.0,WeatherDisplay:10.37,2013-09-03 08:36:00,
2013-09-03 04:41:00,58.7,51.9,29.89,WNW,290,0.2,1.2,78,0.00,OVC,SCT,0.00,0.0,WeatherDisplay:10.37,2013-09-03 08:41:00,
2013-09-03 04:46:00,58.7,52.2,29.89,WNW,290,0.3,1.2,79,0.00,OVC,SCT,0.00,0.0,WeatherDisplay:10.37,2013-09-03 08:46:00,
2013-09-03 04:51:00,58.7,52.2,29.89,WNW,292,0.0,0.0,79,0.00,OVC,SCT,0.00,0.0,WeatherDisplay:10.37,2013-09-03 08:51:00,
2013-09-03 04:56:00,58.8,52.0,29.89,WNW,292,0.0,0.0,78,0.00,OVC,SCT,0.00,0.0,WeatherDisplay:10.37,2013-09-03 08:56:00,
2013-09-03 05:01:00,58.8,52.3,29.89,WNW,292,0.0,0.0,79,0.00,OVC,SCT,0.00,0.0,WeatherDisplay:10.37,2013-09-03 09:01:00,
2013-09-03 05:06:00,58.8,52.3,29.89,WNW,292,0.1,1.0,79,0.00,OVC,SCT,0.00,0.0,WeatherDisplay:10.37,2013-09-03 09:06:00,
2013-09-03 05:11:00,58.7,52.2,29.89,WNW,292,0.0,0.0,79,0.00,OVC,SCT,0.00,0.0,WeatherDisplay:10.37,2013-09-03 09:11:00,
2013-09-03 05:16:00,58.8,52.3,29.89,WNW,292,0.0,0.0,79,0.00,OVC,SCT,0.00,0.0,WeatherDisplay:10.37,2013-09-03 09:16:00,
2013-09-03 05:21:00,58.8,52.3,29.89,WNW,292,0.0,0.0,79,0.00,OVC,SCT,0.00,0.0,WeatherDisplay:10.37,2013-09-03 09:21:00,
2013-09-03 05:26:00,58.8,52.3,29.89,WNW,292,0.3,1.2,79,0.00,OVC,SCT,0.00,0.0,WeatherDisplay:10.37,2013-09-03 09:26:00,
2013-09-03 05:31:00,58.8,52.3,29.89,WNW,292,0.0,0.0,79,0.00,OVC,SCT,0.00,0.0,WeatherDisplay:10.37,2013-09-03 09:31:00,
2013-09-03 05:36:00,58.8,52.3,29.89,WNW,292,0.1,2.3,79,0.00,OVC,SCT,0.00,0.0,WeatherDisplay:10.37,2013-09-03 09:36:00,
2013-09-03 05:41:00,58.7,52.2,29.89,WNW,292,0.0,1.2,79,0.00,OVC,SCT,0.00,0.0,WeatherDisplay:10.37,2013-09-03 09:41:00,
2013-09-03 05:46:00,58.8,52.3,29.90,WNW,292,0.3,2.0,79,0.00,OVC,SCT,0.00,0.0,WeatherDisplay:10.37,2013-09-03 09:46:00,
2013-09-03 05:51:00,58.8,52.3,29.90,WNW,292,0.0,0.0,79,0.00,OVC,SCT,0.00,0.0,WeatherDisplay:10.37,2013-09-03 09:51:00,
2013-09-03 05:56:00,58.7,52.2,29.90,WNW,303,0.0,0.0,79,0.00,OVC,SCT,0.00,0.0,WeatherDisplay:10.37,2013-09-03 09:56:00,
2013-09-03 06:01:00,58.7,52.2,29.90,NW,304,0.0,0.0,79,0.00,OVC,SCT,0.00,0.0,WeatherDisplay:10.37,2013-09-03 10:01:00,
2013-09-03 06:06:00,58.7,52.5,29.90,NW,304,0.0,1.2,80,0.00,OVC,SCT,0.00,0.0,WeatherDisplay:10.37,2013-09-03 10:06:00,
2013-09-03 06:11:00,58.7,52.2,29.90,NW,304,0.0,0.0,79,0.00,OVC,SCT,0.00,0.0,WeatherDisplay:10.37,2013-09-03 10:11:00,
2013-09-03 06:16:00,58.7,52.2,29.90,NW,304,0.0,0.0,79,0.00,OVC,SCT,0.00,0.0,WeatherDisplay:10.37,2013-09-03 10:16:00,
2013-09-03 06:21:00,58.7,52.2,29.90,WNW,296,0.0,0.0,79,0.00,OVC,SCT,0.00,0.0,WeatherDisplay:10.37,2013-09-03 10:21:00,
2013-09-03 06:26:00,58.7,52.5,29.91,WNW,296,0.0,0.0,80,0.00,OVC,SCT,0.00,0.0,WeatherDisplay:10.37,2013-09-03 10:26:00,
2013-09-03 06:31:00,58.7,52.5,29.91,WNW,296,0.1,0.0,80,0.00,OVC,SCT,0.00,0.0,WeatherDisplay:10.37,2013-09-03 10:31:00,
2013-09-03 06:36:00,58.7,52.2,29.91,WNW,296,0.0,0.0,79,0.00,OVC,SCT,0.00,0.0,WeatherDisplay:10.37,2013-09-03 10:36:00,
2013-09-03 06:41:00,58.6,52.4,29.91,WNW,296,0.1,1.2,80,0.00,OVC,SCT,0.00,0.0,WeatherDisplay:10.37,2013-09-03 10:41:00,
2013-09-03 06:46:00,58.6,52.4,29.91,WNW,296,0.0,0.0,80,0.00,OVC,SCT,0.00,0.0,WeatherDisplay:10.37,2013-09-03 10:46:00,
2013-09-03 06:51:00,58.6,52.4,29.91,WNW,296,0.0,1.2,80,0.00,OVC,SCT,0.00,0.0,WeatherDisplay:10.37,2013-09-03 10:51:00,
2013-09-03 06:56:00,58.7,52.9,29.92,West,281,0.0,1.2,81,0.00,OVC,SCT,0.00,0.0,WeatherDisplay:10.37,2013-09-03 10:56:00,
2013-09-03 07:01:00,58.6,52.8,29.92,South,180,0.0,1.2,81,0.00,OVC,SCT,0.00,0.0,WeatherDisplay:10.37,2013-09-03 11:01:00,
2013-09-03 07:06:00,58.6,52.8,29.92,SSW,206,0.0,1.2,81,0.00,OVC,SCT,0.00,0.0,WeatherDisplay:10.37,2013-09-03 11:06:00,
2013-09-03 07:11:00,58.6,52.8,29.92,WSW,244,0.0,1.2,81,0.00,OVC,SCT,0.00,0.0,WeatherDisplay:10.37,2013-09-03 11:11:00,
2013-09-03 07:16:00,58.6,52.8,29.92,WSW,244,0.0,0.0,81,0.00,OVC,SCT,0.00,0.0,WeatherDisplay:10.37,2013-09-03 11:16:00,
2013-09-03 07:21:00,58.6,52.8,29.92,West,277,0.7,1.2,81,0.00,OVC,SCT,0.00,0.0,WeatherDisplay:10.37,2013-09-03 11:21:00,
2013-09-03 07:26:00,58.6,52.8,29.92,WNW,297,0.0,1.2,81,0.00,OVC,SCT,0.00,5.0,WeatherDisplay:10.37,2013-09-03 11:26:00,
2013-09-03 07:31:00,58.6,53.1,29.92,WNW,290,0.0,0.0,82,0.00,OVC,SCT,0.00,5.0,WeatherDisplay:10.37,2013-09-03 11:31:00,
2013-09-03 07:36:00,58.6,53.1,29.93,WNW,292,0.6,2.3,82,0.00,OVC,SCT,0.00,7.0,WeatherDisplay:10.37,2013-09-03 11:36:00,
2013-09-03 07:41:00,58.6,53.1,29.93,WNW,292,0.0,0.0,82,0.00,OVC,SCT,0.00,7.0,WeatherDisplay:10.37,2013-09-03 11:41:00,
2013-09-03 07:46:00,58.6,53.1,29.93,WNW,297,0.0,1.2,82,0.00,OVC,SCT,0.00,11.0,WeatherDisplay:10.37,2013-09-03 11:46:00,
2013-09-03 07:51:00,58.6,53.1,29.93,WNW,297,0.0,0.0,82,0.00,OVC,SCT,0.00,12.0,WeatherDisplay:10.37,2013-09-03 11:51:00,
2013-09-03 07:56:00,58.6,53.1,29.94,WNW,297,0.0,0.0,82,0.00,OVC,SCT,0.00,14.0,WeatherDisplay:10.37,2013-09-03 11:56:00,
2013-09-03 08:01:00,58.7,52.9,29.93,WNW,297,0.0,0.0,81,0.00,OVC,SCT,0.00,18.0,WeatherDisplay:10.37,2013-09-03 12:01:00,
2013-09-03 08:06:00,58.8,53.3,29.94,WNW,297,0.9,1.2,82,0.00,OVC,SCT,0.00,19.0,WeatherDisplay:10.37,2013-09-03 12:06:00,
2013-09-03 08:11:00,58.8,53.3,29.94,WNW,297,0.2,1.0,82,0.00,OVC,SCT,0.00,21.0,WeatherDisplay:10.37,2013-09-03 12:11:00,
2013-09-03 08:16:00,58.9,53.4,29.94,WNW,297,0.0,1.2,82,0.00,OVC,SCT,0.00,23.0,WeatherDisplay:10.37,2013-09-03 12:16:00,
2013-09-03 08:21:00,58.9,53.4,29.95,WNW,297,0.0,0.0,82,0.00,OVC,SCT,0.00,23.0,WeatherDisplay:10.37,2013-09-03 12:21:00,
2013-09-03 08:26:00,59.0,53.8,29.95,WNW,297,0.0,0.0,83,0.00,OVC,SCT,0.00,26.0,WeatherDisplay:10.37,2013-09-03 12:26:00,
2013-09-03 08:31:00,59.1,53.6,29.95,WNW,297,0.0,0.0,82,0.00,OVC,SCT,0.00,30.0,WeatherDisplay:10.37,2013-09-03 12:31:00,
2013-09-03 08:36:00,59.1,53.6,29.95,WNW,297,0.1,0.0,82,0.00,OVC,SCT,0.00,28.0,WeatherDisplay:10.37,2013-09-03 12:36:00,
2013-09-03 08:41:00,59.2,54.0,29.95,WNW,301,0.0,1.0,83,0.00,OVC,SCT,0.00,30.0,WeatherDisplay:10.37,2013-09-03 12:41:00,
2013-09-03 08:46:00,59.2,54.0,29.96,WNW,301,0.2,1.2,83,0.00,OVC,SCT,0.00,33.0,WeatherDisplay:10.37,2013-09-03 12:46:00,
2013-09-03 08:51:00,59.3,54.1,29.95,WNW,301,0.0,0.0,83,0.00,OVC,SCT,0.00,42.0,WeatherDisplay:10.37,2013-09-03 12:51:00,
2013-09-03 08:56:00,59.4,53.9,29.95,WNW,300,0.3,2.0,82,0.00,OVC,SCT,0.00,58.0,WeatherDisplay:10.37,2013-09-03 12:56:00,
2013-09-03 09:01:00,59.5,54.0,29.96,WNW,290,0.6,3.0,82,0.00,OVC,SCT,0.00,60.0,WeatherDisplay:10.37,2013-09-03 13:01:00,
2013-09-03 09:06:00,59.6,54.1,29.96,WNW,290,0.0,0.0,82,0.00,OVC,SCT,0.00,63.0,WeatherDisplay:10.37,2013-09-03 13:06:00,
2013-09-03 09:11:00,59.7,54.2,29.96,WNW,290,0.3,2.3,82,0.00,OVC,SCT,0.00,60.0,WeatherDisplay:10.37,2013-09-03 13:11:00,
2013-09-03 09:16:00,59.8,54.0,29.96,WNW,292,1.1,3.5,81,0.00,OVC,SCT,0.00,53.0,WeatherDisplay:10.37,2013-09-03 13:16:00,
2013-09-03 09:21:00,59.8,54.0,29.96,WNW,284,1.9,2.0,81,0.00,OVC,SCT,0.00,53.0,WeatherDisplay:10.37,2013-09-03 13:21:00,
2013-09-03 09:26:00,59.8,54.0,29.96,WNW,302,1.7,3.0,81,0.00,OVC,SCT,0.00,65.0,WeatherDisplay:10.37,2013-09-03 13:26:00,
2013-09-03 09:31:00,59.8,53.6,29.96,WNW,302,0.0,1.2,80,0.00,OVC,SCT,0.00,81.0,WeatherDisplay:10.37,2013-09-03 13:31:00,
2013-09-03 09:36:00,59.9,54.1,29.96,WNW,286,0.0,1.2,81,0.00,OVC,SCT,0.00,74.0,WeatherDisplay:10.37,2013-09-03 13:36:00,
2013-09-03 09:41:00,60.0,54.2,29.96,WNW,286,0.0,0.0,81,0.00,OVC,SCT,0.00,86.0,WeatherDisplay:10.37,2013-09-03 13:41:00,
2013-09-03 09:46:00,60.1,54.2,29.96,WNW,286,0.0,0.0,81,0.00,OVC,SCT,0.00,77.0,WeatherDisplay:10.37,2013-09-03 13:46:00,
2013-09-03 09:51:00,60.1,53.9,29.96,WNW,298,0.0,0.0,80,0.00,OVC,SCT,0.00,79.0,WeatherDisplay:10.37,2013-09-03 13:51:00,
2013-09-03 09:56:00,60.2,54.0,29.97,WNW,298,0.4,2.0,80,0.00,OVC,SCT,0.00,77.0,WeatherDisplay:10.37,2013-09-03 13:56:00,
2013-09-03 10:01:00,60.2,54.0,29.97,NW,309,0.6,2.3,80,0.00,OVC,SCT,0.00,109.0,WeatherDisplay:10.37,2013-09-03 14:01:00,
2013-09-03 10:06:00,60.3,54.1,29.97,NW,315,0.2,1.2,80,0.00,OVC,SCT,0.00,70.0,WeatherDisplay:10.37,2013-09-03 14:06:00,
2013-09-03 10:11:00,60.3,54.4,29.97,WNW,294,0.4,1.2,81,0.00,OVC,SCT,0.00,102.0,WeatherDisplay:10.37,2013-09-03 14:11:00,
2013-09-03 10:16:00,60.4,54.2,29.97,NW,305,0.5,2.0,80,0.00,OVC,SCT,0.00,111.0,WeatherDisplay:10.37,2013-09-03 14:16:00,
2013-09-03 10:21:00,60.6,54.4,29.97,NW,305,0.0,1.2,80,0.00,OVC,SCT,0.00,113.0,WeatherDisplay:10.37,2013-09-03 14:21:00,
2013-09-03 10:26:00,60.8,54.9,29.97,NW,305,0.2,1.2,81,0.00,OVC,SCT,0.00,123.0,WeatherDisplay:10.37,2013-09-03 14:26:00,
2013-09-03 10:31:00,61.0,54.4,29.97,NW,305,0.0,1.2,79,0.00,OVC,SCT,0.00,165.0,WeatherDisplay:10.37,2013-09-03 14:31:00,
2013-09-03 10:36:00,61.3,55.1,29.97,NW,305,0.0,0.0,80,0.00,OVC,SCT,0.00,178.0,WeatherDisplay:10.37,2013-09-03 14:36:00,
2013-09-03 10:41:00,61.5,54.9,29.97,West,277,1.3,4.0,79,0.00,OVC,SCT,0.00,172.0,WeatherDisplay:10.37,2013-09-03 14:41:00,
2013-09-03 10:46:00,61.8,55.2,29.97,West,274,2.0,3.5,79,0.00,OVC,SCT,0.00,202.0,WeatherDisplay:10.37,2013-09-03 14:46:00,
2013-09-03 10:51:00,62.2,55.3,29.97,West,274,0.0,0.0,78,0.00,OVC,SCT,0.00,165.0,WeatherDisplay:10.37,2013-09-03 14:51:00,
2013-09-03 10:56:00,62.4,55.1,29.97,WNW,290,0.0,1.2,77,0.00,OVC,SCT,0.00,176.0,WeatherDisplay:10.37,2013-09-03 14:56:00,
2013-09-03 11:01:00,62.4,55.4,29.97,WNW,294,0.8,3.5,78,0.00,OVC,SCT,0.00,353.0,WeatherDisplay:10.37,2013-09-03 15:01:00,
2013-09-03 11:06:00,62.6,55.3,29.97,WNW,294,0.0,0.0,77,0.00,OVC,SCT,0.00,185.0,WeatherDisplay:10.37,2013-09-03 15:06:00,
2013-09-03 11:11:00,63.0,55.3,29.97,WNW,294,0.0,1.2,76,0.00,OVC,SCT,0.00,840.0,WeatherDisplay:10.37,2013-09-03 15:11:00,
2013-09-03 11:16:00,64.0,56.3,29.97,NW,310,0.0,2.3,76,0.00,OVC,SCT,0.00,853.0,WeatherDisplay:10.37,2013-09-03 15:16:00,
2013-09-03 11:21:00,64.5,55.3,29.97,WNW,298,0.1,0.0,72,0.00,OVC,SCT,0.00,144.0,WeatherDisplay:10.37,2013-09-03 15:21:00,
2013-09-03 11:26:00,64.4,55.6,29.97,WNW,292,1.8,5.0,73,0.00,OVC,SCT,0.00,158.0,WeatherDisplay:10.37,2013-09-03 15:26:00,
2013-09-03 11:31:00,64.1,55.3,29.97,WNW,288,0.1,1.2,73,0.00,OVC,SCT,0.00,206.0,WeatherDisplay:10.37,2013-09-03 15:31:00,
2013-09-03 11:36:00,64.6,55.7,29.97,WNW,288,0.0,1.2,73,0.00,OVC,SCT,0.00,895.0,WeatherDisplay:10.37,2013-09-03 15:36:00,
2013-09-03 11:41:00,65.1,55.1,29.97,NW,306,0.0,0.0,70,0.00,OVC,SCT,0.00,272.0,WeatherDisplay:10.37,2013-09-03 15:41:00,
2013-09-03 11:46:00,65.4,55.4,29.97,NW,319,1.8,3.5,70,0.00,OVC,SCT,0.00,169.0,WeatherDisplay:10.37,2013-09-03 15:46:00,
2013-09-03 11:51:00,65.4,55.7,29.97,WNW,303,1.1,2.3,71,0.00,OVC,SCT,0.00,211.0,WeatherDisplay:10.37,2013-09-03 15:51:00,
2013-09-03 11:56:00,66.0,56.7,29.97,WNW,299,0.0,1.2,72,0.00,OVC,SCT,0.00,865.0,WeatherDisplay:10.37,2013-09-03 15:56:00,
2013-09-03 12:01:00,66.4,56.7,29.97,WNW,298,2.2,4.0,71,0.00,BKN,SCT,0.00,902.0,WeatherDisplay:10.37,2013-09-03 16:01:00,
2013-09-03 12:06:00,66.4,55.9,29.97,WNW,288,0.1,1.2,69,0.00,BKN,SCT,0.00,823.0,WeatherDisplay:10.37,2013-09-03 16:06:00,
2013-09-03 12:11:00,66.7,55.4,29.97,WNW,299,0.2,1.2,67,0.00,BKN,SCT,0.00,972.0,WeatherDisplay:10.37,2013-09-03 16:11:00,
2013-09-03 12:16:00,67.2,55.9,29.97,NW,315,0.1,2.0,67,0.00,BKN,SCT,0.00,172.0,WeatherDisplay:10.37,2013-09-03 16:16:00,
2013-09-03 12:21:00,67.4,56.1,29.97,WNW,300,1.8,2.0,67,0.00,BKN,SCT,0.00,260.0,WeatherDisplay:10.37,2013-09-03 16:21:00,
2013-09-03 12:26:00,67.3,56.0,29.97,WNW,288,0.0,1.2,67,0.00,BKN,SCT,0.00,186.0,WeatherDisplay:10.37,2013-09-03 16:26:00,
2013-09-03 12:31:00,67.4,56.1,29.97,NW,309,0.3,3.5,67,0.00,BKN,SCT,0.00,278.0,WeatherDisplay:10.37,2013-09-03 16:31:00,
2013-09-03 12:36:00,67.1,55.4,29.97,NNW,337,0.0,0.0,66,0.00,BKN,SCT,0.00,928.0,WeatherDisplay:10.37,2013-09-03 16:36:00,
2013-09-03 12:41:00,67.7,56.3,29.97,NW,319,2.0,4.6,67,0.00,BKN,SCT,0.00,949.0,WeatherDisplay:10.37,2013-09-03 16:41:00,
2013-09-03 12:46:00,67.8,55.2,29.97,NW,321,0.1,3.5,64,0.00,BKN,SCT,0.00,981.0,WeatherDisplay:10.37,2013-09-03 16:46:00,
2013-09-03 12:51:00,68.1,55.9,29.97,WNW,301,1.4,4.6,65,0.00,BKN,SCT,0.00,267.0,WeatherDisplay:10.37,2013-09-03 16:51:00,
2013-09-03 12:56:00,68.8,56.6,29.97,WNW,302,0.7,3.5,65,0.00,BKN,SCT,0.00,953.0,WeatherDisplay:10.37,2013-09-03 16:56:00,
2013-09-03 13:01:00,68.9,55.8,29.97,NW,317,0.6,1.2,63,0.00,BKN,SCT,0.00,167.0,WeatherDisplay:10.37,2013-09-03 17:01:00,
2013-09-03 13:06:00,68.2,55.1,29.97,NW,314,0.0,3.5,63,0.00,BKN,SCT,0.00,984.0,WeatherDisplay:10.37,2013-09-03 17:06:00,
2013-09-03 13:11:00,68.6,55.9,29.96,West,279,0.8,3.5,64,0.00,BKN,SCT,0.00,1056.0,WeatherDisplay:10.37,2013-09-03 17:11:00,
2013-09-03 13:16:00,69.5,57.2,29.97,WNW,297,3.3,3.5,65,0.00,BKN,SCT,0.00,1023.0,WeatherDisplay:10.37,2013-09-03 17:16:00,
2013-09-03 13:21:00,69.9,56.3,29.97,WNW,296,0.0,0.0,62,0.00,BKN,SCT,0.00,981.0,WeatherDisplay:10.37,2013-09-03 17:21:00,
2013-09-03 13:26:00,69.8,55.7,29.97,WNW,292,0.8,2.0,61,0.00,BKN,SCT,0.00,192.0,WeatherDisplay:10.37,2013-09-03 17:26:00,
2013-09-03 13:31:00,69.4,56.7,29.97,WNW,300,0.2,2.3,64,0.00,BKN,SCT,0.00,802.0,WeatherDisplay:10.37,2013-09-03 17:31:00,
2013-09-03 13:36:00,69.6,56.4,29.96,NW,305,0.1,1.2,63,0.00,BKN,SCT,0.00,893.0,WeatherDisplay:10.37,2013-09-03 17:36:00,
2013-09-03 13:41:00,69.6,55.6,29.96,NW,312,0.0,1.2,61,0.00,BKN,SCT,0.00,171.0,WeatherDisplay:10.37,2013-09-03 17:41:00,
2013-09-03 13:46:00,69.1,56.0,29.97,NW,313,0.2,2.3,63,0.00,BKN,SCT,0.00,176.0,WeatherDisplay:10.37,2013-09-03 17:46:00,
2013-09-03 13:51:00,69.1,58.1,29.97,WNW,288,1.0,3.0,68,0.00,BKN,SCT,0.00,914.0,WeatherDisplay:10.37,2013-09-03 17:51:00,
2013-09-03 13:56:00,69.9,56.7,29.97,WNW,298,0.0,1.2,63,0.00,BKN,SCT,0.00,800.0,WeatherDisplay:10.37,2013-09-03 17:56:00,
2013-09-03 14:01:00,70.9,57.2,29.97,SSW,212,0.6,2.3,62,0.00,SCT,,0.00,976.0,WeatherDisplay:10.37,2013-09-03 18:01:00,
2013-09-03 14:06:00,70.9,57.2,29.96,NW,313,0.4,2.3,62,0.00,SCT,,0.00,183.0,WeatherDisplay:10.37,2013-09-03 18:06:00,
2013-09-03 14:11:00,70.2,57.0,29.97,NW,307,0.9,3.5,63,0.00,SCT,,0.00,967.0,WeatherDisplay:10.37,2013-09-03 18:11:00,
2013-09-03 14:16:00,70.4,56.8,29.96,West,259,0.1,3.5,62,0.00,SCT,,0.00,932.0,WeatherDisplay:10.37,2013-09-03 18:16:00,
2013-09-03 14:21:00,71.0,56.9,29.96,NW,304,0.1,1.2,61,0.00,SCT,,0.00,963.0,WeatherDisplay:10.37,2013-09-03 18:21:00,
2013-09-03 14:26:00,71.1,56.0,29.96,NW,320,0.9,3.5,59,0.00,SCT,,0.00,905.0,WeatherDisplay:10.37,2013-09-03 18:26:00,
2013-09-03 14:31:00,71.3,56.2,29.96,WSW,250,1.0,3.0,59,0.00,SCT,,0.00,932.0,WeatherDisplay:10.37,2013-09-03 18:31:00,
2013-09-03 14:36:00,71.6,57.0,29.96,NW,312,0.1,2.3,60,0.00,SCT,,0.00,979.0,WeatherDisplay:10.37,2013-09-03 18:36:00,
2013-09-03 14:41:00,71.7,56.6,29.96,NW,325,0.0,2.3,59,0.00,SCT,,0.00,895.0,WeatherDisplay:10.37,2013-09-03 18:41:00,
2013-09-03 14:46:00,72.1,56.5,29.96,NW,325,0.0,2.3,58,0.00,SCT,,0.00,932.0,WeatherDisplay:10.37,2013-09-03 18:46:00,
2013-09-03 14:51:00,71.8,56.2,29.95,WNW,294,0.6,2.3,58,0.00,SCT,,0.00,232.0,WeatherDisplay:10.37,2013-09-03 18:51:00,
2013-09-03 14:56:00,71.7,57.1,29.95,NW,306,0.0,1.2,60,0.00,SCT,,0.00,874.0,WeatherDisplay:10.37,2013-09-03 18:56:00,
2013-09-03 15:01:00,72.1,56.5,29.95,NW,312,1.2,2.0,58,0.00,SCT,,0.00,856.0,WeatherDisplay:10.37,2013-09-03 19:01:00,
2013-09-03 15:06:00,72.4,57.3,29.95,WNW,297,0.0,0.0,59,0.00,SCT,,0.00,860.0,WeatherDisplay:10.37,2013-09-03 19:06:00,
2013-09-03 15:11:00,72.7,56.6,29.95,NW,318,0.0,1.2,57,0.00,SCT,,0.00,833.0,WeatherDisplay:10.37,2013-09-03 19:11:00,
2013-09-03 15:16:00,73.0,57.3,29.95,NW,319,0.0,3.5,58,0.00,SCT,,0.00,824.0,WeatherDisplay:10.37,2013-09-03 19:16:00,
2013-09-03 15:21:00,73.6,57.4,29.94,NW,319,0.0,1.2,57,0.00,SCT,,0.00,606.0,WeatherDisplay:10.37,2013-09-03 19:21:00,
2013-09-03 15:26:00,73.7,57.5,29.94,NW,312,1.3,3.5,57,0.00,SCT,,0.00,434.0,WeatherDisplay:10.37,2013-09-03 19:26:00,
2013-09-03 15:31:00,73.6,57.9,29.94,WNW,302,0.0,2.3,58,0.00,SCT,,0.00,779.0,WeatherDisplay:10.37,2013-09-03 19:31:00,
2013-09-03 15:36:00,73.8,59.5,29.94,NW,307,0.2,2.3,61,0.00,SCT,,0.00,784.0,WeatherDisplay:10.37,2013-09-03 19:36:00,
2013-09-03 15:41:00,74.2,57.0,29.94,NW,312,1.1,1.2,55,0.00,SCT,,0.00,772.0,WeatherDisplay:10.37,2013-09-03 19:41:00,
2013-09-03 15:46:00,74.2,58.9,29.94,West,272,0.8,2.0,59,0.00,SCT,,0.00,765.0,WeatherDisplay:10.37,2013-09-03 19:46:00,
2013-09-03 15:51:00,74.7,58.0,29.93,West,263,0.7,2.3,56,0.00,SCT,,0.00,754.0,WeatherDisplay:10.37,2013-09-03 19:51:00,
2013-09-03 15:56:00,75.0,58.2,29.93,NW,315,1.0,3.0,56,0.00,SCT,,0.00,747.0,WeatherDisplay:10.37,2013-09-03 19:56:00,
2013-09-03 16:01:00,74.7,58.0,29.94,NW,310,0.7,2.3,56,0.00,SCT,,0.00,731.0,WeatherDisplay:10.37,2013-09-03 20:01:00,
2013-09-03 16:06:00,74.8,57.5,29.93,NW,312,0.0,3.5,55,0.00,SCT,,0.00,710.0,WeatherDisplay:10.37,2013-09-03 20:06:00,
2013-09-03 16:11:00,75.3,59.0,29.93,SSE,163,0.4,1.2,57,0.00,SCT,,0.00,705.0,WeatherDisplay:10.37,2013-09-03 20:11:00,
2013-09-03 16:16:00,75.7,57.9,29.93,NW,304,0.5,2.3,54,0.00,SCT,,0.00,691.0,WeatherDisplay:10.37,2013-09-03 20:16:00,
2013-09-03 16:21:00,75.6,57.8,29.93,NW,312,0.7,3.5,54,0.00,SCT,,0.00,680.0,WeatherDisplay:10.37,2013-09-03 20:21:00,
2013-09-03 16:26:00,75.5,57.7,29.94,NW,313,0.3,2.3,54,0.00,SCT,,0.00,661.0,WeatherDisplay:10.37,2013-09-03 20:26:00,
2013-09-03 16:31:00,75.6,57.3,29.93,West,272,0.0,0.0,53,0.00,SCT,,0.00,659.0,WeatherDisplay:10.37,2013-09-03 20:31:00,
2013-09-03 16:36:00,75.7,57.9,29.94,WNW,297,0.9,2.0,54,0.00,SCT,,0.00,638.0,WeatherDisplay:10.37,2013-09-03 20:36:00,
2013-09-03 16:41:00,75.8,57.4,29.94,NW,315,0.0,2.3,53,0.00,SCT,,0.00,622.0,WeatherDisplay:10.37,2013-09-03 20:41:00,
2013-09-03 16:46:00,75.9,59.1,29.93,NW,313,1.0,2.3,56,0.00,SCT,,0.00,612.0,WeatherDisplay:10.37,2013-09-03 20:46:00,
2013-09-03 16:51:00,75.9,57.0,29.93,WNW,298,0.0,0.0,52,0.00,SCT,,0.00,599.0,WeatherDisplay:10.37,2013-09-03 20:51:00,
2013-09-03 16:56:00,76.3,57.9,29.93,WNW,298,1.8,4.6,53,0.00,SCT,,0.00,582.0,WeatherDisplay:10.37,2013-09-03 20:56:00,
2013-09-03 17:01:00,76.1,57.2,29.93,NW,320,0.3,3.5,52,0.00,SCT,,0.00,564.0,WeatherDisplay:10.37,2013-09-03 21:01:00,
2013-09-03 17:06:00,76.3,57.9,29.93,WNW,288,0.5,1.2,53,0.00,SCT,,0.00,548.0,WeatherDisplay:10.37,2013-09-03 21:06:00,
2013-09-03 17:11:00,76.6,58.7,29.93,WNW,288,0.1,2.3,54,0.00,SCT,,0.00,531.0,WeatherDisplay:10.37,2013-09-03 21:11:00,
2013-09-03 17:16:00,76.6,58.7,29.93,SE,130,0.0,0.0,54,0.00,SCT,,0.00,520.0,WeatherDisplay:10.37,2013-09-03 21:16:00,
2013-09-03 17:21:00,76.6,57.7,29.93,NW,306,1.4,3.0,52,0.00,SCT,,0.00,478.0,WeatherDisplay:10.37,2013-09-03 21:21:00,
2013-09-03 17:26:00,76.5,57.0,29.93,NW,315,1.4,3.0,51,0.00,SCT,,0.00,445.0,WeatherDisplay:10.37,2013-09-03 21:26:00,
2013-09-03 17:31:00,76.1,56.1,29.93,WNW,292,0.5,2.0,50,0.00,SCT,,0.00,434.0,WeatherDisplay:10.37,2013-09-03 21:31:00,
2013-09-03 17:36:00,76.2,57.3,29.93,WNW,298,0.0,0.0,52,0.00,SCT,,0.00,448.0,WeatherDisplay:10.37,2013-09-03 21:36:00,
2013-09-03 17:41:00,76.5,57.6,29.93,WNW,302,0.3,3.5,52,0.00,SCT,,0.00,431.0,WeatherDisplay:10.37,2013-09-03 21:41:00,
2013-09-03 17:46:00,76.8,57.8,29.93,WNW,302,0.0,1.2,52,0.00,SCT,,0.00,417.0,WeatherDisplay:10.37,2013-09-03 21:46:00,
2013-09-03 17:51:00,77.0,57.5,29.93,West,275,0.2,2.0,51,0.00,SCT,,0.00,401.0,WeatherDisplay:10.37,2013-09-03 21:51:00,
2013-09-03 17:56:00,77.2,58.2,29.93,West,277,0.4,1.2,52,0.00,SCT,,0.00,383.0,WeatherDisplay:10.37,2013-09-03 21:56:00,
2013-09-03 18:01:00,77.1,57.6,29.93,WNW,300,0.1,2.3,51,0.00,SCT,,0.00,366.0,WeatherDisplay:10.37,2013-09-03 22:01:00,
2013-09-03 18:06:00,77.1,58.1,29.93,West,273,1.4,3.0,52,0.00,SCT,,0.00,350.0,WeatherDisplay:10.37,2013-09-03 22:06:00,
2013-09-03 18:11:00,76.7,57.2,29.93,NW,312,0.6,2.0,51,0.00,SCT,,0.00,334.0,WeatherDisplay:10.37,2013-09-03 22:11:00,
2013-09-03 18:16:00,76.4,56.9,29.93,WNW,298,0.1,0.0,51,0.00,SCT,,0.00,316.0,WeatherDisplay:10.37,2013-09-03 22:16:00,
2013-09-03 18:21:00,76.3,56.8,29.93,NW,311,0.0,1.2,51,0.00,SCT,,0.00,299.0,WeatherDisplay:10.37,2013-09-03 22:21:00,
2013-09-03 18:26:00,76.3,56.8,29.94,NW,311,0.2,1.2,51,0.00,SCT,,0.00,279.0,WeatherDisplay:10.37,2013-09-03 22:26:00,
2013-09-03 18:31:00,76.0,57.1,29.94,NW,309,1.1,3.5,52,0.00,SCT,,0.00,197.0,WeatherDisplay:10.37,2013-09-03 22:31:00,
2013-09-03 18:36:00,75.3,57.0,29.94,NW,306,0.3,1.2,53,0.00,SCT,,0.00,139.0,WeatherDisplay:10.37,2013-09-03 22:36:00,
2013-09-03 18:41:00,74.9,57.6,29.94,NW,306,0.1,0.0,55,0.00,SCT,,0.00,90.0,WeatherDisplay:10.37,2013-09-03 22:41:00,
2013-09-03 18:46:00,74.6,57.4,29.94,NW,313,0.0,0.0,55,0.00,SCT,,0.00,51.0,WeatherDisplay:10.37,2013-09-03 22:46:00,
2013-09-03 18:51:00,74.2,57.0,29.94,NW,313,0.0,0.0,55,0.00,SCT,,0.00,46.0,WeatherDisplay:10.37,2013-09-03 22:51:00,
2013-09-03 18:56:00,73.7,57.0,29.94,NW,313,0.0,0.0,56,0.00,SCT,,0.00,33.0,WeatherDisplay:10.37,2013-09-03 22:56:00,
2013-09-03 19:01:00,73.4,57.2,29.93,NW,313,0.0,1.2,57,0.00,SCT,,0.00,35.0,WeatherDisplay:10.37,2013-09-03 23:01:00,
2013-09-03 19:06:00,73.1,57.4,29.93,NW,313,0.0,0.0,58,0.00,SCT,,0.00,26.0,WeatherDisplay:10.37,2013-09-03 23:06:00,
2013-09-03 19:11:00,72.8,57.2,29.93,NW,315,0.0,0.0,58,0.00,SCT,,0.00,18.0,WeatherDisplay:10.37,2013-09-03 23:11:00,
2013-09-03 19:16:00,72.6,57.9,29.93,NW,315,0.0,0.0,60,0.00,SCT,,0.00,14.0,WeatherDisplay:10.37,2013-09-03 23:16:00,
2013-09-03 19:21:00,72.4,57.7,29.93,NW,315,0.0,0.0,60,0.00,SCT,,0.00,16.0,WeatherDisplay:10.37,2013-09-03 23:21:00,
2013-09-03 19:26:00,72.1,57.0,29.94,NW,315,0.0,0.0,59,0.00,SCT,,0.00,12.0,WeatherDisplay:10.37,2013-09-03 23:26:00,
2013-09-03 19:31:00,71.9,57.3,29.94,NW,315,0.0,0.0,60,0.00,SCT,,0.00,12.0,WeatherDisplay:10.37,2013-09-03 23:31:00,
2013-09-03 19:36:00,71.8,57.6,29.94,NW,315,0.0,0.0,61,0.00,SCT,,0.00,30.0,WeatherDisplay:10.37,2013-09-03 23:36:00,
2013-09-03 19:41:00,71.7,57.5,29.94,NW,315,0.0,0.0,61,0.00,SCT,,0.00,14.0,WeatherDisplay:10.37,2013-09-03 23:41:00,
2013-09-03 19:46:00,71.5,58.2,29.94,NW,315,0.0,0.0,63,0.00,SCT,,0.00,9.0,WeatherDisplay:10.37,2013-09-03 23:46:00,
2013-09-03 19:51:00,71.1,58.3,29.94,NW,315,0.0,0.0,64,0.00,SCT,,0.00,7.0,WeatherDisplay:10.37,2013-09-03 23:51:00,
2013-09-03 19:56:00,70.7,58.4,29.94,NW,315,0.0,0.0,65,0.00,SCT,,0.00,5.0,WeatherDisplay:10.37,2013-09-03 23:56:00,
2013-09-03 20:01:00,70.1,58.2,29.94,NW,315,0.0,0.0,66,0.00,SCT,,0.00,0.0,WeatherDisplay:10.37,2013-09-04 00:01:00,
2013-09-03 20:06:00,69.6,57.7,29.94,NW,315,0.0,0.0,66,0.00,SCT,,0.00,0.0,WeatherDisplay:10.37,2013-09-04 00:06:00,
2013-09-03 20:11:00,69.1,58.1,29.95,NW,315,0.0,0.0,68,0.00,SCT,,0.00,0.0,WeatherDisplay:10.37,2013-09-04 00:11:00,
2013-09-03 20:16:00,68.5,57.9,29.95,NW,315,0.0,0.0,69,0.00,SCT,,0.00,0.0,WeatherDisplay:10.37,2013-09-04 00:16:00,
2013-09-03 20:21:00,68.0,57.8,29.95,NW,315,0.0,0.0,70,0.00,SCT,,0.00,0.0,WeatherDisplay:10.37,2013-09-04 00:21:00,
2013-09-03 20:26:00,67.5,57.8,29.95,NW,315,0.0,0.0,71,0.00,SCT,,0.00,0.0,WeatherDisplay:10.37,2013-09-04 00:26:00,
2013-09-03 20:31:00,67.0,57.3,29.95,NW,315,0.0,0.0,71,0.00,SCT,,0.00,0.0,WeatherDisplay:10.37,2013-09-04 00:31:00,
2013-09-03 20:36:00,66.6,57.3,29.95,NW,315,0.0,0.0,72,0.00,SCT,,0.00,0.0,WeatherDisplay:10.37,2013-09-04 00:36:00,
2013-09-03 20:41:00,66.1,57.6,29.95,NW,315,0.0,0.0,74,0.00,SCT,,0.00,0.0,WeatherDisplay:10.37,2013-09-04 00:41:00,
2013-09-03 20:46:00,65.8,57.3,29.96,NW,315,0.0,0.0,74,0.00,SCT,,0.00,0.0,WeatherDisplay:10.37,2013-09-04 00:46:00,
2013-09-03 20:51:00,65.4,57.3,29.96,NW,315,0.0,0.0,75,0.00,SCT,,0.00,0.0,WeatherDisplay:10.37,2013-09-04 00:51:00,
2013-09-03 20:56:00,65.0,56.9,29.96,NW,315,0.0,0.0,75,0.00,SCT,,0.00,0.0,WeatherDisplay:10.37,2013-09-04 00:56:00,
2013-09-03 21:01:00,64.6,57.6,29.96,NW,315,0.0,0.0,78,0.00,SCT,,0.00,0.0,WeatherDisplay:10.37,2013-09-04 01:01:00,
2013-09-03 21:06:00,64.3,57.3,29.96,NW,315,0.0,0.0,78,0.00,SCT,,0.00,0.0,WeatherDisplay:10.37,2013-09-04 01:06:00,
2013-09-03 21:11:00,63.9,56.9,29.96,NW,315,0.0,0.0,78,0.00,SCT,,0.00,0.0,WeatherDisplay:10.37,2013-09-04 01:11:00,
2013-09-03 21:16:00,63.7,57.1,29.96,NW,315,0.0,0.0,79,0.00,SCT,,0.00,0.0,WeatherDisplay:10.37,2013-09-04 01:16:00,
2013-09-03 21:21:00,63.4,56.8,29.96,NW,315,0.0,0.0,79,0.00,SCT,,0.00,0.0,WeatherDisplay:10.37,2013-09-04 01:21:00,
2013-09-03 21:26:00,63.1,57.2,29.97,NW,315,0.0,0.0,81,0.00,SCT,,0.00,0.0,WeatherDisplay:10.37,2013-09-04 01:26:00,
2013-09-03 21:31:00,62.9,57.0,29.97,NW,315,0.0,0.0,81,0.00,SCT,,0.00,0.0,WeatherDisplay:10.37,2013-09-04 01:31:00,
2013-09-03 21:36:00,62.6,57.0,29.97,NW,315,0.0,0.0,82,0.00,SCT,,0.00,0.0,WeatherDisplay:10.37,2013-09-04 01:36:00,
2013-09-03 21:41:00,62.4,56.8,29.97,NW,315,0.0,0.0,82,0.00,SCT,,0.00,0.0,WeatherDisplay:10.37,2013-09-04 01:41:00,
2013-09-03 21:46:00,62.1,56.9,29.97,NW,315,0.0,0.0,83,0.00,SCT,,0.00,0.0,WeatherDisplay:10.37,2013-09-04 01:46:00,
2013-09-03 21:51:00,61.9,56.7,29.97,NW,315,0.0,0.0,83,0.00,SCT,,0.00,0.0,WeatherDisplay:10.37,2013-09-04 01:51:00,
2013-09-03 21:56:00,61.6,56.7,29.97,NW,315,0.0,0.0,84,0.00,SCT,,0.00,0.0,WeatherDisplay:10.37,2013-09-04 01:56:00,
2013-09-03 22:01:00,61.4,56.8,29.97,NW,315,0.0,0.0,85,0.00,FEW,SCT,0.00,0.0,WeatherDisplay:10.37,2013-09-04 02:01:00,
2013-09-03 22:06:00,61.2,56.7,29.97,NW,315,0.0,0.0,85,0.00,FEW,SCT,0.00,0.0,WeatherDisplay:10.37,2013-09-04 02:06:00,
2013-09-03 22:11:00,61.0,56.8,29.97,NW,315,0.0,0.0,86,0.00,FEW,SCT,0.00,0.0,WeatherDisplay:10.37,2013-09-04 02:11:00,
2013-09-03 22:16:00,60.8,56.6,29.97,NW,315,0.0,0.0,86,0.00,FEW,SCT,0.00,0.0,WeatherDisplay:10.37,2013-09-04 02:16:00,
2013-09-03 22:21:00,60.7,56.8,29.97,NW,315,0.0,0.0,87,0.00,FEW,SCT,0.00,0.0,WeatherDisplay:10.37,2013-09-04 02:21:00,
2013-09-03 22:26:00,60.5,56.6,29.97,NW,315,0.0,0.0,87,0.00,FEW,SCT,0.00,0.0,WeatherDisplay:10.37,2013-09-04 02:26:00,
2013-09-03 22:31:00,60.3,56.4,29.97,NW,315,0.0,0.0,87,0.00,FEW,SCT,0.00,0.0,WeatherDisplay:10.37,2013-09-04 02:31:00,
2013-09-03 22:36:00,60.1,56.2,29.97,NW,315,0.0,0.0,87,0.00,FEW,SCT,0.00,0.0,WeatherDisplay:10.37,2013-09-04 02:36:00,
2013-09-03 22:41:00,60.0,56.4,29.97,NW,315,0.0,0.0,88,0.00,FEW,SCT,0.00,0.0,WeatherDisplay:10.37,2013-09-04 02:41:00,
2013-09-03 22:46:00,59.8,56.2,29.97,NW,315,0.0,0.0,88,0.00,FEW,SCT,0.00,0.0,WeatherDisplay:10.37,2013-09-04 02:46:00,
2013-09-03 22:51:00,59.6,55.7,29.97,NW,315,0.0,0.0,87,0.00,FEW,SCT,0.00,0.0,WeatherDisplay:10.37,2013-09-04 02:51:00,
2013-09-03 22:56:00,59.4,55.5,29.97,NW,315,0.0,0.0,87,0.00,FEW,SCT,0.00,0.0,WeatherDisplay:10.37,2013-09-04 02:56:00,
2013-09-03 23:01:00,59.3,55.7,29.97,NW,315,0.0,0.0,88,0.00,CLR,SCT,0.00,0.0,WeatherDisplay:10.37,2013-09-04 03:01:00,
2013-09-03 23:06:00,59.1,55.5,29.97,NW,315,0.0,0.0,88,0.00,CLR,SCT,0.00,0.0,WeatherDisplay:10.37,2013-09-04 03:06:00,
2013-09-03 23:11:00,59.2,55.6,29.98,NW,315,0.0,0.0,88,0.00,CLR,SCT,0.00,0.0,WeatherDisplay:10.37,2013-09-04 03:11:00,
2013-09-03 23:16:00,59.3,55.7,29.98,NW,315,0.0,0.0,88,0.00,CLR,SCT,0.00,0.0,WeatherDisplay:10.37,2013-09-04 03:16:00,
2013-09-03 23:21:00,59.3,55.7,29.98,NW,315,0.0,0.0,88,0.00,CLR,SCT,0.00,0.0,WeatherDisplay:10.37,2013-09-04 03:21:00,
2013-09-03 23:26:00,59.5,55.9,29.98,NW,315,0.0,0.0,88,0.00,CLR,SCT,0.00,0.0,WeatherDisplay:10.37,2013-09-04 03:26:00,
2013-09-03 23:31:00,59.5,55.6,29.98,NW,315,0.0,0.0,87,0.00,CLR,SCT,0.00,0.0,WeatherDisplay:10.37,2013-09-04 03:31:00,
2013-09-03 23:36:00,59.4,55.5,29.98,NW,315,0.0,0.0,87,0.00,CLR,SCT,0.00,0.0,WeatherDisplay:10.37,2013-09-04 03:36:00,
2013-09-03 23:41:00,59.4,55.8,29.98,NW,315,0.0,0.0,88,0.00,CLR,SCT,0.00,0.0,WeatherDisplay:10.37,2013-09-04 03:41:00,
2013-09-03 23:46:00,59.3,55.7,29.99,NW,315,0.0,0.0,88,0.00,CLR,SCT,0.00,0.0,WeatherDisplay:10.37,2013-09-04 03:46:00,
2013-09-03 23:51:00,59.2,55.6,29.98,NW,315,0.0,0.0,88,0.00,CLR,SCT,0.00,0.0,WeatherDisplay:10.37,2013-09-04 03:51:00,
2013-09-03 23:56:00,59.1,55.9,29.98,NW,315,0.0,0.0,89,0.00,CLR,SCT,0.00,0.0,WeatherDisplay:10.37,2013-09-04 03:56:00,